In Rescue
 
Open Full Screen Window  High Contrast Mode
Wind Gusting 00 knots
09
March 01, 2024 4:01 PM CST
Weather Information
Wind Direction
  230 °
Wind Speed
  09 kt (10 mph)
Wind Gust
  00 kt (0 mph)
Altimeter
29.65 in
Visibility
10 SM
Temperature
06° C
43° F
Dewpoint
01° C
34° F
Humidity
70%
Sky Condition
Clear
VFR

METAR KROX 012201Z AUTO 23009KT 10SM CLR 06/01 A2965 RMK AO2

FAA Disclaimer: The data displayed is for advisory purposes only and is not to be used for flight planning or operations.